Time;durP1;ratioP1;P1;durP2;ratioP2;P2;SDS_P1;SDS_P2;PMS_P1;PMS_P2;Temp;Humidity;BMP_temperature;BMP_pressure;BME280_temperature;BME280_humidity;BME280_pressure;Samples;Min_cycle;Max_cycle;Signal;HPM_P1;HPM_P2
2022/05/15 00:02:22;;;;;;;16.83;4.88;;;;;;;;;;5011728;28;20084;-64
2022/05/15 00:04:47;;;;;;;12.88;4.20;;;;;;;;;;5007239;28;20034;-63
2022/05/15 00:07:13;;;;;;;15.73;4.55;;;;;;;;;;5009000;28;20026;-65
2022/05/15 00:09:39;;;;;;;17.20;4.65;;;;;;;;;;5013154;28;20034;-64
2022/05/15 00:12:06;;;;;;;14.65;4.40;;;;;;;;;;5011138;28;20053;-63
2022/05/15 00:14:33;;;;;;;15.25;4.78;;;;;;;;;;5010201;28;20033;-64
2022/05/15 00:16:58;;;;;;;18.95;4.70;;;;;;;;;;5009497;28;20030;-63
2022/05/15 00:19:25;;;;;;;15.07;4.82;;;;;;;;;;5011430;28;20490;-64
2022/05/15 00:21:50;;;;;;;16.30;4.47;;;;;;;;;;5009226;28;20123;-64
2022/05/15 00:24:16;;;;;;;15.93;5.05;;;;;;;;;;5012024;28;20490;-64
2022/05/15 00:26:41;;;;;;;14.80;4.60;;;;;;;;;;5011330;28;20045;-64
2022/05/15 00:29:07;;;;;;;14.52;4.50;;;;;;;;;;5010320;28;20040;-64
2022/05/15 00:31:32;;;;;;;19.58;4.85;;;;;;;;;;5009845;28;20034;-65
2022/05/15 00:33:58;;;;;;;17.13;5.05;;;;;;;;;;5010837;28;20075;-65
2022/05/15 00:36:23;;;;;;;18.70;4.80;;;;;;;;;;5007693;28;20037;-64
2022/05/15 00:38:49;;;;;;;18.65;4.82;;;;;;;;;;5010402;28;20476;-63
2022/05/15 00:41:15;;;;;;;12.55;4.90;;;;;;;;;;5009739;28;20435;-64
2022/05/15 00:43:46;;;;;;;15.70;4.75;;;;;;;;;;5011146;28;20522;-65
2022/05/15 00:46:23;;;;;;;18.02;5.00;;;;;;;;;;5010301;28;20080;-64
2022/05/15 00:48:50;;;;;;;18.15;5.13;;;;;;;;;;5011344;28;20034;-66
2022/05/15 00:51:26;;;;;;;21.02;5.28;;;;;;;;;;5008811;28;20377;-65
2022/05/15 00:53:56;;;;;;;17.48;4.90;;;;;;;;;;5010091;28;20034;-64
2022/05/15 00:56:24;;;;;;;18.08;5.03;;;;;;;;;;5000560;28;20467;-65
2022/05/15 00:58:58;;;;;;;18.52;5.03;;;;;;;;;;5002669;28;20117;-64
2022/05/15 01:01:24;;;;;;;22.77;5.20;;;;;;;;;;5011160;28;20038;-63
2022/05/15 01:03:50;;;;;;;10.80;4.30;;;;;;;;;;5012619;28;20361;-63
2022/05/15 01:06:16;;;;;;;13.50;4.50;;;;;;;;;;5007159;28;20037;-65
2022/05/15 01:08:41;;;;;;;22.00;5.45;;;;;;;;;;5010456;28;20026;-64
2022/05/15 01:11:11;;;;;;;14.77;4.80;;;;;;;;;;5011060;28;20060;-63
2022/05/15 01:13:40;;;;;;;18.85;4.85;;;;;;;;;;5010529;28;20082;-65
2022/05/15 01:16:15;;;;;;;16.48;5.03;;;;;;;;;;5006435;28;20038;-64
2022/05/15 01:18:54;;;;;;;15.05;4.82;;;;;;;;;;5011610;28;20049;-65
2022/05/15 01:21:33;;;;;;;18.08;5.07;;;;;;;;;;5005434;28;20044;-65
2022/05/15 01:24:01;;;;;;;19.70;5.07;;;;;;;;;;5008089;28;20045;-65
2022/05/15 01:26:27;;;;;;;19.02;4.88;;;;;;;;;;5008109;28;20091;-65
2022/05/15 01:28:52;;;;;;;21.38;5.55;;;;;;;;;;5009173;28;20475;-64
2022/05/15 01:31:19;;;;;;;18.52;4.97;;;;;;;;;;5011242;28;20080;-66
2022/05/15 01:33:48;;;;;;;15.60;5.20;;;;;;;;;;5009934;28;20045;-64
2022/05/15 01:36:15;;;;;;;17.95;5.28;;;;;;;;;;5025678;28;20022;-65
2022/05/15 01:38:41;;;;;;;14.77;4.90;;;;;;;;;;5010466;28;20117;-64
2022/05/15 01:41:07;;;;;;;16.88;5.43;;;;;;;;;;5009298;28;20121;-65
2022/05/15 01:43:33;;;;;;;18.48;5.80;;;;;;;;;;4998048;28;20046;-65
2022/05/15 01:45:58;;;;;;;16.80;5.25;;;;;;;;;;5011808;28;20081;-64
2022/05/15 01:48:25;;;;;;;20.48;5.50;;;;;;;;;;5006408;28;20038;-64
2022/05/15 01:50:51;;;;;;;18.90;5.80;;;;;;;;;;5023578;28;20239;-64
2022/05/15 01:53:16;;;;;;;17.30;5.40;;;;;;;;;;5005065;28;20478;-64
2022/05/15 01:55:42;;;;;;;19.85;6.32;;;;;;;;;;5009837;28;20037;-63
2022/05/15 01:58:10;;;;;;;13.90;5.07;;;;;;;;;;5008685;28;20057;-65
2022/05/15 02:00:35;;;;;;;14.13;5.47;;;;;;;;;;5012287;28;20053;-64
2022/05/15 02:03:01;;;;;;;19.67;5.60;;;;;;;;;;5014988;28;20471;-63
2022/05/15 02:05:26;;;;;;;19.75;5.68;;;;;;;;;;5014539;28;20151;-65
2022/05/15 02:07:53;;;;;;;15.02;5.28;;;;;;;;;;5014290;28;20036;-64
2022/05/15 02:10:19;;;;;;;24.38;5.70;;;;;;;;;;5013783;28;20402;-66
2022/05/15 02:12:44;;;;;;;16.80;5.28;;;;;;;;;;5011815;28;20034;-64
2022/05/15 02:15:10;;;;;;;22.20;5.55;;;;;;;;;;5010700;28;20386;-64
2022/05/15 02:17:36;;;;;;;21.02;5.88;;;;;;;;;;5013718;28;20457;-64
2022/05/15 02:20:02;;;;;;;18.30;5.93;;;;;;;;;;5015537;28;20117;-64
2022/05/15 02:22:27;;;;;;;21.30;6.15;;;;;;;;;;5011334;28;20044;-63
2022/05/15 02:24:53;;;;;;;18.23;5.50;;;;;;;;;;5014711;28;20474;-65
2022/05/15 02:27:18;;;;;;;19.08;5.82;;;;;;;;;;5011815;28;20108;-66
2022/05/15 02:29:44;;;;;;;22.40;6.30;;;;;;;;;;5013393;28;20038;-64
2022/05/15 02:32:10;;;;;;;20.15;6.00;;;;;;;;;;5013931;28;20038;-64
2022/05/15 02:34:35;;;;;;;19.90;5.97;;;;;;;;;;5013037;28;20037;-65
2022/05/15 02:37:00;;;;;;;16.75;5.88;;;;;;;;;;4998854;28;20035;-64
2022/05/15 02:39:26;;;;;;;19.48;6.57;;;;;;;;;;5013223;28;20034;-64
2022/05/15 02:41:51;;;;;;;21.30;6.70;;;;;;;;;;5013994;28;20372;-64
2022/05/15 02:44:17;;;;;;;18.17;6.63;;;;;;;;;;5028003;28;20141;-63
2022/05/15 02:46:42;;;;;;;17.67;6.60;;;;;;;;;;5012086;28;20037;-64
2022/05/15 02:51:52;;;;;;;19.27;6.43;;;;;;;;;;5013711;28;20390;-63
2022/05/15 02:54:17;;;;;;;20.20;6.95;;;;;;;;;;5001964;28;20506;-64
2022/05/15 02:56:43;;;;;;;18.30;6.75;;;;;;;;;;5013085;28;20335;-63
2022/05/15 02:59:08;;;;;;;25.45;7.20;;;;;;;;;;5010061;28;20112;-64
2022/05/15 03:01:34;;;;;;;20.92;6.72;;;;;;;;;;5012809;28;20474;-64
2022/05/15 03:04:01;;;;;;;21.40;6.82;;;;;;;;;;5026803;28;20121;-63
2022/05/15 03:06:26;;;;;;;22.80;7.45;;;;;;;;;;5014068;28;20065;-63
2022/05/15 03:08:52;;;;;;;20.20;7.10;;;;;;;;;;5010314;28;20427;-63
2022/05/15 03:11:18;;;;;;;25.10;8.20;;;;;;;;;;5011430;28;20030;-64
2022/05/15 03:13:47;;;;;;;21.85;7.15;;;;;;;;;;5009354;28;20148;-64
2022/05/15 03:16:13;;;;;;;23.20;7.45;;;;;;;;;;5014313;28;20057;-63
2022/05/15 03:18:42;;;;;;;20.67;7.40;;;;;;;;;;5010892;28;20148;-65
2022/05/15 03:21:08;;;;;;;18.00;7.53;;;;;;;;;;5013100;28;20112;-63
2022/05/15 03:23:33;;;;;;;18.85;7.40;;;;;;;;;;5008629;28;20165;-64
2022/05/15 03:25:59;;;;;;;24.33;7.55;;;;;;;;;;5013225;28;20368;-63
2022/05/15 03:28:24;;;;;;;18.17;7.50;;;;;;;;;;5011317;28;20523;-65
2022/05/15 03:30:50;;;;;;;29.50;7.43;;;;;;;;;;5012632;28;20037;-63
2022/05/15 03:33:15;;;;;;;18.45;7.95;;;;;;;;;;5011582;28;20038;-63
2022/05/15 03:35:41;;;;;;;20.10;7.15;;;;;;;;;;5012788;28;20034;-63
2022/05/15 03:38:07;;;;;;;18.50;7.25;;;;;;;;;;5011932;28;20036;-64
2022/05/15 03:40:34;;;;;;;23.30;7.97;;;;;;;;;;5013067;28;20034;-65
2022/05/15 03:42:59;;;;;;;27.00;8.07;;;;;;;;;;5011424;28;20046;-64
2022/05/15 03:45:25;;;;;;;19.17;7.05;;;;;;;;;;5012595;28;20044;-65
2022/05/15 03:47:52;;;;;;;20.48;7.13;;;;;;;;;;5010455;28;20474;-63
2022/05/15 03:50:20;;;;;;;21.02;7.82;;;;;;;;;;5010723;28;20068;-64
2022/05/15 03:52:46;;;;;;;23.15;7.97;;;;;;;;;;5012197;28;20462;-64
2022/05/15 03:55:12;;;;;;;22.70;8.35;;;;;;;;;;4995758;28;20034;-63
2022/05/15 03:57:38;;;;;;;25.20;8.75;;;;;;;;;;5007889;28;20038;-64
2022/05/15 04:00:08;;;;;;;19.77;7.43;;;;;;;;;;5010857;28;20037;-63
2022/05/15 04:02:33;;;;;;;22.37;7.97;;;;;;;;;;5012136;28;20041;-63
2022/05/15 04:04:59;;;;;;;24.48;7.60;;;;;;;;;;4997003;28;20045;-63
2022/05/15 04:07:24;;;;;;;22.77;7.88;;;;;;;;;;5000422;28;20058;-65
2022/05/15 04:09:50;;;;;;;24.00;7.43;;;;;;;;;;5010491;28;20034;-63
2022/05/15 04:12:16;;;;;;;17.90;7.45;;;;;;;;;;5001995;28;20034;-63
2022/05/15 04:14:42;;;;;;;21.80;8.18;;;;;;;;;;5004022;28;20029;-63
2022/05/15 04:17:08;;;;;;;19.40;7.47;;;;;;;;;;5010836;28;20033;-63
2022/05/15 04:19:38;;;;;;;20.05;7.35;;;;;;;;;;5011966;28;20057;-63
2022/05/15 04:22:05;;;;;;;20.55;7.68;;;;;;;;;;5009214;28;20152;-63
2022/05/15 04:24:32;;;;;;;17.30;8.40;;;;;;;;;;5011748;28;20038;-64
2022/05/15 04:26:58;;;;;;;19.38;7.32;;;;;;;;;;5010657;28;20065;-63
2022/05/15 04:29:35;;;;;;;22.55;7.20;;;;;;;;;;5012187;28;20135;-63
2022/05/15 04:32:00;;;;;;;19.05;7.18;;;;;;;;;;5010623;28;20034;-63
2022/05/15 04:34:27;;;;;;;23.35;8.23;;;;;;;;;;5010906;28;20383;-64
2022/05/15 04:36:53;;;;;;;20.40;7.70;;;;;;;;;;5012668;28;20112;-63
2022/05/15 04:39:19;;;;;;;21.23;7.13;;;;;;;;;;5011763;28;20112;-63
2022/05/15 04:41:44;;;;;;;24.75;8.07;;;;;;;;;;5012092;28;20037;-64
2022/05/15 04:44:10;;;;;;;18.90;7.47;;;;;;;;;;5011989;28;20074;-63
2022/05/15 04:46:36;;;;;;;21.42;7.80;;;;;;;;;;5012002;28;20030;-64
2022/05/15 04:49:01;;;;;;;18.77;7.60;;;;;;;;;;5010437;28;20030;-64
2022/05/15 04:51:28;;;;;;;23.38;7.55;;;;;;;;;;5012496;28;20034;-65
2022/05/15 04:53:54;;;;;;;22.55;7.75;;;;;;;;;;5009524;28;20022;-65
2022/05/15 04:56:20;;;;;;;17.63;7.55;;;;;;;;;;5011457;28;20036;-64
2022/05/15 04:58:45;;;;;;;29.77;7.90;;;;;;;;;;5008527;28;20038;-64
2022/05/15 05:01:10;;;;;;;19.05;7.78;;;;;;;;;;5012348;28;20064;-63
2022/05/15 05:03:36;;;;;;;20.08;7.90;;;;;;;;;;5007404;28;20034;-65
2022/05/15 05:06:01;;;;;;;20.13;8.15;;;;;;;;;;5012267;28;20033;-64
2022/05/15 05:08:27;;;;;;;20.42;7.85;;;;;;;;;;5002845;28;20038;-65
2022/05/15 05:10:52;;;;;;;19.30;7.93;;;;;;;;;;4994633;28;20045;-63
2022/05/15 05:13:18;;;;;;;18.83;8.27;;;;;;;;;;4998927;28;20030;-63
2022/05/15 05:15:43;;;;;;;17.08;8.30;;;;;;;;;;5010282;28;20493;-64
2022/05/15 05:18:09;;;;;;;21.23;7.82;;;;;;;;;;5004891;28;20032;-63
2022/05/15 05:20:34;;;;;;;21.75;8.68;;;;;;;;;;5011497;28;20041;-64
2022/05/15 05:22:59;;;;;;;18.48;8.48;;;;;;;;;;5009976;28;20030;-63
2022/05/15 05:25:25;;;;;;;16.42;8.38;;;;;;;;;;5012385;28;20109;-63
2022/05/15 05:27:50;;;;;;;19.65;8.85;;;;;;;;;;5010473;28;20061;-64
2022/05/15 05:30:19;;;;;;;18.60;8.57;;;;;;;;;;5012343;28;20379;-63
2022/05/15 05:32:45;;;;;;;19.90;8.57;;;;;;;;;;5008352;28;20030;-64
2022/05/15 05:35:12;;;;;;;15.63;8.73;;;;;;;;;;5011179;28;20034;-62
2022/05/15 05:37:37;;;;;;;21.27;8.20;;;;;;;;;;5009317;28;20495;-63
2022/05/15 05:40:04;;;;;;;19.00;8.20;;;;;;;;;;4992379;28;20118;-63
2022/05/15 05:42:29;;;;;;;16.45;8.70;;;;;;;;;;4992809;28;20038;-64
2022/05/15 05:44:55;;;;;;;21.25;9.18;;;;;;;;;;5010496;28;20136;-63
2022/05/15 05:47:27;;;;;;;17.17;8.80;;;;;;;;;;5011200;28;20076;-64
2022/05/15 05:49:54;;;;;;;18.38;8.93;;;;;;;;;;5011007;28;20033;-63
2022/05/15 05:52:20;;;;;;;22.02;9.30;;;;;;;;;;5004840;28;20026;-63
2022/05/15 05:54:45;;;;;;;20.88;8.82;;;;;;;;;;4991217;28;20387;-64
2022/05/15 05:57:11;;;;;;;18.90;8.80;;;;;;;;;;4995331;28;20041;-63
2022/05/15 05:59:36;;;;;;;17.92;8.60;;;;;;;;;;5011225;28;20042;-65
2022/05/15 06:02:02;;;;;;;18.67;8.85;;;;;;;;;;5008506;28;20030;-65
2022/05/15 06:04:40;;;;;;;17.35;8.43;;;;;;;;;;5011949;28;20038;-62
2022/05/15 06:07:07;;;;;;;20.33;8.48;;;;;;;;;;5005342;28;20487;-63
2022/05/15 06:09:35;;;;;;;16.20;8.40;;;;;;;;;;5003560;28;20061;-65
2022/05/15 06:12:00;;;;;;;17.48;9.07;;;;;;;;;;5011073;28;20030;-65
2022/05/15 06:14:26;;;;;;;15.88;8.38;;;;;;;;;;5010121;28;20037;-64
2022/05/15 06:16:51;;;;;;;19.88;8.45;;;;;;;;;;5008606;28;20029;-64
2022/05/15 06:19:16;;;;;;;20.05;8.93;;;;;;;;;;5006568;28;20061;-64
2022/05/15 06:21:42;;;;;;;17.45;8.80;;;;;;;;;;5008106;28;20403;-64
2022/05/15 06:24:07;;;;;;;21.40;9.13;;;;;;;;;;5010071;28;20036;-63
2022/05/15 06:26:33;;;;;;;17.77;9.13;;;;;;;;;;5008930;28;20030;-65
2022/05/15 06:28:58;;;;;;;16.42;8.68;;;;;;;;;;5002855;28;20026;-62
2022/05/15 06:31:23;;;;;;;19.95;8.77;;;;;;;;;;5026759;28;20026;-62
2022/05/15 06:33:49;;;;;;;18.77;9.07;;;;;;;;;;5010115;28;20462;-62
2022/05/15 06:36:15;;;;;;;19.33;9.02;;;;;;;;;;5003197;28;20452;-62
2022/05/15 06:38:42;;;;;;;19.23;9.00;;;;;;;;;;5005042;28;20084;-62
2022/05/15 06:41:08;;;;;;;14.90;8.80;;;;;;;;;;5006419;28;20525;-62
2022/05/15 06:43:34;;;;;;;17.58;9.23;;;;;;;;;;5008778;28;20041;-65
2022/05/15 06:45:59;;;;;;;18.73;9.52;;;;;;;;;;5010806;28;20037;-63
2022/05/15 06:48:25;;;;;;;19.67;9.38;;;;;;;;;;5012778;28;20109;-63
2022/05/15 06:50:50;;;;;;;18.65;9.30;;;;;;;;;;5013691;28;20034;-64
2022/05/15 06:53:16;;;;;;;21.48;9.55;;;;;;;;;;5013703;28;20121;-63
2022/05/15 06:57:28;;;;;;;18.42;9.60;;;;;;;;;;5013352;28;20030;-63
2022/05/15 06:58:28;;;;;;;18.05;9.15;;;;;;;;;;5011554;28;20038;-64
2022/05/15 07:00:54;;;;;;;21.63;9.60;;;;;;;;;;5013136;28;20160;-64
2022/05/15 07:03:19;;;;;;;16.27;9.55;;;;;;;;;;5015076;28;20105;-64
2022/05/15 07:05:45;;;;;;;16.50;9.55;;;;;;;;;;5014081;28;20037;-64
2022/05/15 07:08:11;;;;;;;18.33;9.82;;;;;;;;;;5004788;28;20030;-62
2022/05/15 07:10:37;;;;;;;18.95;10.05;;;;;;;;;;4997909;28;20042;-67
2022/05/15 07:13:02;;;;;;;18.67;9.48;;;;;;;;;;5011294;28;20053;-64
2022/05/15 07:15:29;;;;;;;19.45;9.88;;;;;;;;;;5012677;28;20034;-63
2022/05/15 07:17:54;;;;;;;18.52;9.43;;;;;;;;;;5013937;28;20085;-64
2022/05/15 07:20:20;;;;;;;20.73;9.30;;;;;;;;;;5011284;28;20418;-64
2022/05/15 07:22:45;;;;;;;18.63;9.65;;;;;;;;;;5008433;28;20030;-64
2022/05/15 07:25:11;;;;;;;16.83;9.40;;;;;;;;;;5013011;28;20038;-63
2022/05/15 07:27:36;;;;;;;18.60;9.00;;;;;;;;;;5007680;28;20058;-65
2022/05/15 07:30:03;;;;;;;19.05;9.77;;;;;;;;;;5009255;28;20027;-64
2022/05/15 07:32:28;;;;;;;20.30;9.65;;;;;;;;;;5011794;28;20038;-63
2022/05/15 07:34:54;;;;;;;14.35;8.68;;;;;;;;;;5013286;28;20037;-63
2022/05/15 07:37:20;;;;;;;16.42;9.25;;;;;;;;;;5011418;28;20556;-64
2022/05/15 07:39:45;;;;;;;14.23;8.80;;;;;;;;;;5012066;28;20057;-64
2022/05/15 07:42:11;;;;;;;20.52;9.27;;;;;;;;;;5003580;28;20395;-64
2022/05/15 07:44:36;;;;;;;15.48;8.80;;;;;;;;;;4993836;28;20047;-65
2022/05/15 07:47:02;;;;;;;16.98;8.68;;;;;;;;;;5002133;28;20034;-64
2022/05/15 07:49:28;;;;;;;15.25;8.35;;;;;;;;;;5013236;28;20064;-63
2022/05/15 07:51:53;;;;;;;16.38;8.23;;;;;;;;;;5010190;28;20045;-63
2022/05/15 07:54:19;;;;;;;14.90;8.10;;;;;;;;;;5012002;28;20030;-61
2022/05/15 07:56:44;;;;;;;14.02;7.55;;;;;;;;;;5012371;28;20099;-61
2022/05/15 07:59:11;;;;;;;14.57;8.20;;;;;;;;;;5009390;28;20061;-61
2022/05/15 08:01:37;;;;;;;15.43;7.75;;;;;;;;;;5012109;28;20033;-61
2022/05/15 08:04:03;;;;;;;16.73;7.72;;;;;;;;;;5012619;28;20559;-61
2022/05/15 08:09:13;;;;;;;15.27;7.90;;;;;;;;;;5010673;28;20537;-61
2022/05/15 08:11:38;;;;;;;14.70;7.40;;;;;;;;;;5011565;28;20037;-64
2022/05/15 08:14:06;;;;;;;16.13;7.80;;;;;;;;;;5011415;28;20113;-61
2022/05/15 08:16:35;;;;;;;16.85;7.75;;;;;;;;;;5013493;28;20075;-61
2022/05/15 08:24:29;;;;;;;13.63;7.25;;;;;;;;;;5011500;28;20437;-62
2022/05/15 08:26:54;;;;;;;14.60;8.05;;;;;;;;;;5009659;28;20468;-62
2022/05/15 08:29:20;;;;;;;15.73;7.45;;;;;;;;;;5010200;28;20030;-62
2022/05/15 08:31:46;;;;;;;16.10;7.43;;;;;;;;;;5005230;28;20041;-61
2022/05/15 08:34:12;;;;;;;12.90;6.60;;;;;;;;;;5007505;28;20056;-62
2022/05/15 08:36:39;;;;;;;17.70;6.28;;;;;;;;;;5013101;28;20038;-62
2022/05/15 08:39:05;;;;;;;12.50;5.68;;;;;;;;;;5012329;28;20041;-62
2022/05/15 08:41:30;;;;;;;14.07;6.22;;;;;;;;;;5000377;28;20395;-63
2022/05/15 08:44:16;;;;;;;12.55;6.10;;;;;;;;;;4992468;28;20471;-62
2022/05/15 08:46:56;;;;;;;13.30;5.65;;;;;;;;;;4992969;28;20036;-64
2022/05/15 08:49:36;;;;;;;11.77;5.18;;;;;;;;;;4993420;28;20041;-62
2022/05/15 08:52:10;;;;;;;10.65;5.43;;;;;;;;;;4992188;28;20113;-62
2022/05/15 08:54:40;;;;;;;10.52;4.60;;;;;;;;;;4992971;28;20032;-65
2022/05/15 08:57:15;;;;;;;17.92;4.43;;;;;;;;;;5010203;28;20116;-62
2022/05/15 08:59:51;;;;;;;12.95;4.28;;;;;;;;;;5012401;28;20458;-64
2022/05/15 09:02:16;;;;;;;13.85;4.10;;;;;;;;;;5011361;28;20076;-61
2022/05/15 09:04:42;;;;;;;11.15;4.40;;;;;;;;;;5012319;28;20030;-64
2022/05/15 09:07:40;;;;;;;12.57;4.50;;;;;;;;;;5012181;28;20497;-61
2022/05/15 09:10:14;;;;;;;11.07;4.72;;;;;;;;;;5011340;28;20080;-61
2022/05/15 09:12:42;;;;;;;21.40;4.82;;;;;;;;;;5012499;28;20033;-62
2022/05/15 09:15:18;;;;;;;13.38;4.43;;;;;;;;;;5010313;28;20025;-62
2022/05/15 09:17:58;;;;;;;12.30;4.40;;;;;;;;;;5011089;28;20395;-64
2022/05/15 09:20:24;;;;;;;13.55;3.90;;;;;;;;;;5012550;28;20025;-61
2022/05/15 09:23:19;;;;;;;12.70;4.38;;;;;;;;;;5011328;28;20084;-61
2022/05/15 09:25:54;;;;;;;13.75;4.45;;;;;;;;;;5012155;28;20125;-64
2022/05/15 09:28:20;;;;;;;11.13;4.00;;;;;;;;;;5012426;28;20057;-62
2022/05/15 09:30:49;;;;;;;7.97;3.50;;;;;;;;;;5011636;28;20034;-64
2022/05/15 09:33:34;;;;;;;12.40;4.00;;;;;;;;;;4997118;28;20030;-62
2022/05/15 09:36:30;;;;;;;11.90;3.50;;;;;;;;;;4992026;28;20034;-61
2022/05/15 09:39:14;;;;;;;12.20;3.63;;;;;;;;;;4991716;28;20472;-62
2022/05/15 09:44:25;;;;;;;10.98;3.60;;;;;;;;;;4992795;28;20057;-62
2022/05/15 09:47:00;;;;;;;13.00;3.70;;;;;;;;;;4992735;28;20034;-64
2022/05/15 09:49:30;;;;;;;9.75;3.72;;;;;;;;;;4991289;28;20031;-61
2022/05/15 09:51:58;;;;;;;9.93;4.13;;;;;;;;;;4991681;28;20391;-61
2022/05/15 09:54:45;;;;;;;15.88;7.47;;;;;;;;;;4992133;28;20145;-61
2022/05/15 09:57:25;;;;;;;12.45;4.68;;;;;;;;;;4990713;28;20030;-62
2022/05/15 09:59:58;;;;;;;10.98;3.88;;;;;;;;;;4991631;28;20038;-62
2022/05/15 10:02:46;;;;;;;13.07;3.10;;;;;;;;;;5002754;28;20383;-62
2022/05/15 10:05:16;;;;;;;9.32;3.33;;;;;;;;;;5011690;28;20038;-61
2022/05/15 10:07:50;;;;;;;8.80;3.37;;;;;;;;;;5012311;28;20041;-63
2022/05/15 10:10:22;;;;;;;12.77;4.10;;;;;;;;;;5008203;28;20025;-61
2022/05/15 10:12:54;;;;;;;15.13;3.50;;;;;;;;;;5011514;28;20474;-64
2022/05/15 10:15:21;;;;;;;10.00;3.50;;;;;;;;;;5011615;28;20026;-61
2022/05/15 10:17:59;;;;;;;12.63;3.60;;;;;;;;;;5010031;28;20034;-64
2022/05/15 10:20:29;;;;;;;10.65;3.42;;;;;;;;;;5013876;28;20463;-62
2022/05/15 10:23:16;;;;;;;12.93;3.33;;;;;;;;;;5014670;28;20041;-62
2022/05/15 10:25:48;;;;;;;10.95;3.45;;;;;;;;;;5021809;28;20390;-61
2022/05/15 10:28:42;;;;;;;12.10;3.10;;;;;;;;;;5013776;28;20377;-62
2022/05/15 10:31:28;;;;;;;10.45;3.00;;;;;;;;;;5014319;28;20466;-62
2022/05/15 10:34:09;;;;;;;11.30;3.35;;;;;;;;;;5012851;28;20536;-63
2022/05/15 10:37:15;;;;;;;14.70;3.20;;;;;;;;;;5014316;28;20041;-64
2022/05/15 10:40:03;;;;;;;9.07;3.22;;;;;;;;;;5011298;28;20088;-63
2022/05/15 10:42:50;;;;;;;10.85;2.80;;;;;;;;;;5014811;28;20049;-62
2022/05/15 10:45:46;;;;;;;8.45;3.35;;;;;;;;;;5015106;28;20173;-62
2022/05/15 10:48:36;;;;;;;8.80;2.97;;;;;;;;;;5014288;28;20030;-62
2022/05/15 10:51:26;;;;;;;10.80;3.08;;;;;;;;;;5012996;28;20374;-62
2022/05/15 10:57:21;;;;;;;10.85;3.00;;;;;;;;;;5013882;28;20092;-62
2022/05/15 10:59:53;;;;;;;8.02;2.63;;;;;;;;;;5015019;28;20036;-62
2022/05/15 11:02:40;;;;;;;8.10;3.08;;;;;;;;;;5014589;28;20109;-62
2022/05/15 11:05:16;;;;;;;9.18;2.55;;;;;;;;;;5008471;28;20376;-62
2022/05/15 11:08:00;;;;;;;8.90;2.92;;;;;;;;;;4994944;28;20059;-62
2022/05/15 11:10:48;;;;;;;8.60;2.83;;;;;;;;;;4995350;28;20030;-62
2022/05/15 11:13:25;;;;;;;12.10;3.17;;;;;;;;;;4993080;28;20563;-62
2022/05/15 11:16:02;;;;;;;9.90;2.90;;;;;;;;;;4994485;28;20022;-65
2022/05/15 11:19:13;;;;;;;8.10;2.88;;;;;;;;;;4995318;28;20026;-61
2022/05/15 11:22:00;;;;;;;9.00;2.70;;;;;;;;;;5004012;28;20052;-61
2022/05/15 11:24:35;;;;;;;8.38;2.83;;;;;;;;;;4993129;28;20050;-62
2022/05/15 11:27:16;;;;;;;8.57;2.83;;;;;;;;;;4992834;28;20030;-61
2022/05/15 11:29:48;;;;;;;7.10;2.85;;;;;;;;;;4994838;28;20030;-61
2022/05/15 11:32:39;;;;;;;9.57;3.13;;;;;;;;;;4992849;28;20131;-62
2022/05/15 11:35:22;;;;;;;10.00;3.28;;;;;;;;;;4994314;28;20054;-62
2022/05/15 11:38:03;;;;;;;9.05;3.03;;;;;;;;;;4994521;28;20034;-62
2022/05/15 11:40:39;;;;;;;11.68;2.67;;;;;;;;;;4994595;28;20030;-62
2022/05/15 11:43:57;;;;;;;9.23;3.10;;;;;;;;;;4993341;28;20054;-62
2022/05/15 11:46:45;;;;;;;9.82;2.72;;;;;;;;;;4953542;28;20031;-62
2022/05/15 11:49:39;;;;;;;9.15;3.17;;;;;;;;;;4993401;28;20045;-63
2022/05/15 11:52:14;;;;;;;9.45;2.58;;;;;;;;;;5013279;28;20045;-62
2022/05/15 11:54:43;;;;;;;8.15;2.67;;;;;;;;;;5012220;28;20030;-62
2022/05/15 11:57:13;;;;;;;9.35;2.40;;;;;;;;;;5027938;28;20049;-62
2022/05/15 11:59:52;;;;;;;9.40;2.45;;;;;;;;;;5013978;28;20033;-62
2022/05/15 12:02:21;;;;;;;8.38;2.72;;;;;;;;;;5013608;28;20160;-61
2022/05/15 12:05:00;;;;;;;10.27;3.22;;;;;;;;;;5010562;28;20050;-63
2022/05/15 12:07:51;;;;;;;10.98;3.20;;;;;;;;;;5012595;28;20034;-62
2022/05/15 12:10:34;;;;;;;10.15;3.17;;;;;;;;;;5012838;28;20046;-62
2022/05/15 12:13:08;;;;;;;7.82;2.63;;;;;;;;;;5011211;28;20415;-63
2022/05/15 12:15:39;;;;;;;10.65;2.60;;;;;;;;;;5012401;28;20036;-62
2022/05/15 12:18:30;;;;;;;9.65;2.58;;;;;;;;;;5012244;28;20410;-63
2022/05/15 12:20:57;;;;;;;6.68;2.20;;;;;;;;;;4985738;28;20056;-64
2022/05/15 12:23:31;;;;;;;8.30;2.50;;;;;;;;;;4992242;28;20042;-62
2022/05/15 12:26:08;;;;;;;11.60;2.50;;;;;;;;;;4991955;28;20026;-64
2022/05/15 12:28:51;;;;;;;10.57;2.92;;;;;;;;;;4993793;28;20026;-62
2022/05/15 12:31:23;;;;;;;8.40;2.72;;;;;;;;;;4992954;28;20041;-61
2022/05/15 12:33:49;;;;;;;8.85;2.63;;;;;;;;;;4992854;28;20132;-62
2022/05/15 12:36:31;;;;;;;7.53;3.20;;;;;;;;;;4992735;28;20121;-62
2022/05/15 12:38:57;;;;;;;5.28;2.22;;;;;;;;;;4991746;28;20121;-64
2022/05/15 12:41:32;;;;;;;4.88;2.10;;;;;;;;;;5008254;28;20422;-61
2022/05/15 12:44:00;;;;;;;7.07;2.63;;;;;;;;;;4989994;28;20069;-65
2022/05/15 12:46:34;;;;;;;7.18;2.28;;;;;;;;;;4993426;28;20411;-62
2022/05/15 12:48:59;;;;;;;6.68;2.22;;;;;;;;;;4999027;28;20034;-62
2022/05/15 12:51:40;;;;;;;6.40;2.58;;;;;;;;;;5012874;28;20032;-62
2022/05/15 12:54:24;;;;;;;7.50;2.63;;;;;;;;;;5011942;28;20471;-63
2022/05/15 12:57:01;;;;;;;8.77;3.03;;;;;;;;;;5012872;28;20025;-62
2022/05/15 12:59:28;;;;;;;9.10;2.90;;;;;;;;;;5012763;28;20037;-63
2022/05/15 13:01:54;;;;;;;7.30;2.50;;;;;;;;;;5012453;28;20025;-63
2022/05/15 13:04:23;;;;;;;7.00;2.40;;;;;;;;;;5009655;28;20038;-62
2022/05/15 13:06:53;;;;;;;8.80;2.47;;;;;;;;;;5011091;28;20100;-65
2022/05/15 13:09:29;;;;;;;5.93;2.50;;;;;;;;;;5009431;28;20630;-61
2022/05/15 13:11:59;;;;;;;6.45;2.45;;;;;;;;;;5020744;28;20038;-62
2022/05/15 13:14:35;;;;;;;;;;;;;;;;;;5009360;28;20558;-61
2022/05/15 13:17:03;;;;;;;6.78;2.42;;;;;;;;;;5005745;28;20004;-62
2022/05/15 13:19:36;;;;;;;5.90;2.40;;;;;;;;;;5004098;28;20038;-62
2022/05/15 13:22:03;;;;;;;8.50;2.83;;;;;;;;;;5007484;28;20041;-61
2022/05/15 13:24:31;;;;;;;7.43;2.47;;;;;;;;;;5011138;28;20068;-61
2022/05/15 13:26:58;;;;;;;7.15;2.42;;;;;;;;;;5011501;28;20021;-61
2022/05/15 13:29:28;;;;;;;6.28;2.20;;;;;;;;;;5010493;28;20073;-61
2022/05/15 13:31:57;;;;;;;9.40;2.67;;;;;;;;;;4994048;28;20034;-61
2022/05/15 13:34:26;;;;;;;8.23;2.40;;;;;;;;;;5010912;28;20053;-61
2022/05/15 13:36:51;;;;;;;5.37;2.17;;;;;;;;;;5012871;28;20386;-61
2022/05/15 13:44:50;;;;;;;8.55;2.30;;;;;;;;;;4994711;28;20103;-60
2022/05/15 13:47:16;;;;;;;7.93;2.40;;;;;;;;;;5010747;28;20049;-60
2022/05/15 13:49:53;;;;;;;6.32;2.30;;;;;;;;;;5008343;28;20445;-60
2022/05/15 13:52:40;;;;;;;6.38;2.30;;;;;;;;;;4991655;28;20066;-60
2022/05/15 13:55:07;;;;;;;7.30;2.40;;;;;;;;;;5006555;28;20042;-60
2022/05/15 13:57:48;;;;;;;6.57;2.60;;;;;;;;;;5015920;28;20030;-60
2022/05/15 14:00:14;;;;;;;8.68;2.65;;;;;;;;;;5012855;28;20038;-62
2022/05/15 14:02:59;;;;;;;8.68;2.60;;;;;;;;;;5013551;28;20072;-61
2022/05/15 14:05:26;;;;;;;6.32;2.67;;;;;;;;;;5011212;28;20058;-61
2022/05/15 14:07:52;;;;;;;8.48;2.78;;;;;;;;;;5013534;28;20058;-61
2022/05/15 14:10:22;;;;;;;6.05;2.67;;;;;;;;;;5013900;28;20034;-61
2022/05/15 14:12:58;;;;;;;8.35;2.67;;;;;;;;;;5014794;28;20034;-60
2022/05/15 14:15:40;;;;;;;7.55;2.60;;;;;;;;;;5013196;28;20033;-61
2022/05/15 14:18:23;;;;;;;6.70;2.70;;;;;;;;;;5012723;28;20034;-61
2022/05/15 14:20:54;;;;;;;7.38;2.78;;;;;;;;;;5012926;28;20069;-60
2022/05/15 14:23:24;;;;;;;8.05;2.20;;;;;;;;;;5000387;28;20140;-61
2022/05/15 14:25:52;;;;;;;;;;;;;;;;;;5015846;28;20076;-60
2022/05/15 14:28:17;;;;;;;5.30;2.30;;;;;;;;;;5010909;28;20275;-61
2022/05/15 14:30:44;;;;;;;7.18;2.78;;;;;;;;;;5012639;28;20133;-61
2022/05/15 14:33:10;;;;;;;6.00;2.50;;;;;;;;;;5014006;28;20509;-61
2022/05/15 14:35:42;;;;;;;6.47;2.58;;;;;;;;;;5001488;28;20103;-61
2022/05/15 14:38:08;;;;;;;6.38;2.28;;;;;;;;;;5012719;28;20056;-60
2022/05/15 14:40:33;;;;;;;9.45;2.50;;;;;;;;;;5013479;28;20077;-61
2022/05/15 14:42:59;;;;;;;10.68;2.70;;;;;;;;;;5009034;28;20046;-60
2022/05/15 14:45:26;;;;;;;6.03;2.47;;;;;;;;;;5008356;28;20522;-60
2022/05/15 14:48:00;;;;;;;6.38;2.60;;;;;;;;;;5013849;28;20387;-60
2022/05/15 14:50:26;;;;;;;7.05;2.45;;;;;;;;;;5011076;28;20423;-60
2022/05/15 14:52:54;;;;;;;6.15;2.30;;;;;;;;;;5009412;28;20026;-60
2022/05/15 14:58:13;;;;;;;5.43;2.60;;;;;;;;;;5009611;28;20088;-60
2022/05/15 15:00:38;;;;;;;7.97;3.00;;;;;;;;;;5013974;28;20088;-60
2022/05/15 15:03:04;;;;;;;8.23;2.70;;;;;;;;;;5008816;28;20419;-60
2022/05/15 15:05:44;;;;;;;9.18;2.83;;;;;;;;;;5013531;28;20112;-61
2022/05/15 15:08:30;;;;;;;;;;;;;;;;;;5010930;28;20041;-60
2022/05/15 15:11:11;;;;;;;6.43;2.42;;;;;;;;;;5014372;28;20275;-60
2022/05/15 15:13:38;;;;;;;7.20;2.75;;;;;;;;;;5011941;28;20034;-61
2022/05/15 15:16:03;;;;;;;7.47;2.55;;;;;;;;;;5014325;28;20033;-61
2022/05/15 15:18:29;;;;;;;9.15;2.60;;;;;;;;;;5009767;28;20049;-62